Airfield :
LOGIN :

Register | Disclaimer

   EN    FR    IT 

 










Legend :    VFR   Marginal VFR   IFR   Intensive IFR   Very Intensive IFR
Visi :
Ceiling :
>= 8 km
>= 3000ft
5 to 8 km
1000 to 3000 ft
1500m to 5 km
500 to 1000 ft
800 to 1500m
200 to 500 ft
< 800m
< 200 ft
Symbols :   Thunderstorms  Fog  Heavy snow  Heavy precipitations  Wind > 20 kt
SIGMETs :     Misc.  Thunderstorms  Icing  Turbulence  Mountain Waves  Volcanic Ashes







- Airport Elevation : 126 ft
- IATA code : TIA


LATI - Rinas Mother Teresa Arpt - Tirana

CURRENT METAR :
  • 171720Z VRB01KT 9999 OVC047 07/05 Q1011 NOSIG

EXPIRED METARs :
  • 171650Z 32004KT 300V360 9999 BKN045 OVC053 07/06 Q1011 NOSIG
  • 171620Z 32006KT 9999 DZ OVC044 07/05 Q1011 NOSIG
  • 171550Z VRB02KT 9999 -RA OVC042 07/05 Q1011 NOSIG
  • 171520Z VRB01KT 9999 -RA FEW020 SCT032 OVC040 07/05 Q1012 NOSIG
  • 171450Z 34005KT 9999 -RA OVC040 06/05 Q1012 NOSIG

TAF TAF LATI
Valid from the 17 at 18:00 until the 18 at 18:00 UTC


171700Z 1718/1818 02008KT 9999 SCT020 OVC040
TEMPO 1718/1803 4000 RA
BECMG 1803/1806 SCT050 BKN100
No reported NOTAMs for that airfield.



MET'MAP, your aeronautical weather chart ! - Copyright ORBIFLY December 2007 - Disclaimer

ORBIFLY MET'MAP TEAM :

Programming & Development : Alexandra Zaïnal
Concept & Development : Baudouin d'Aumeries
Co-Development & Prog : Marc-Olivier Méhu
Technical & hardware support : Manuel Goepfert

Contact : metmap@orbifly.com




SOURCES & CREDITS :

   NOAA